createdAt,value
2019-03-16T00:00:05.704Z,13.78
2019-03-16T00:05:07.233Z,21.82
2019-03-16T00:10:09.452Z,20.48
2019-03-16T00:15:11.019Z,20.35
2019-03-16T00:20:12.392Z,25.82
2019-03-16T00:25:13.828Z,24.77
2019-03-16T00:30:15.259Z,29.18
2019-03-16T00:35:16.802Z,13.95
2019-03-16T00:40:18.419Z,23.38
2019-03-16T00:45:19.956Z,18.70
2019-03-16T00:50:21.365Z,19.05
2019-03-16T00:55:22.736Z,21.48
2019-03-16T01:00:25.063Z,18.80
2019-03-16T01:05:26.478Z,17.73
2019-03-16T01:10:28.283Z,14.00
2019-03-16T01:15:29.826Z,17.52
2019-03-16T01:20:31.276Z,13.98
2019-03-16T01:25:32.737Z,14.07
2019-03-16T01:30:34.239Z,12.80
2019-03-16T01:35:35.671Z,14.28
2019-03-16T01:40:37.068Z,14.10
2019-03-16T01:45:38.397Z,13.62
2019-03-16T01:50:39.707Z,11.38
2019-03-16T01:55:41.134Z,14.90
2019-03-16T02:00:42.876Z,10.10
2019-03-16T02:05:44.338Z,13.10
2019-03-16T02:10:48.391Z,15.30
2019-03-16T02:15:49.766Z,12.47
2019-03-16T02:20:51.496Z,11.10
2019-03-16T02:25:52.851Z,12.82
2019-03-16T02:30:54.203Z,11.68
2019-03-16T02:35:55.508Z,7.50
2019-03-16T02:40:56.868Z,7.87
2019-03-16T02:45:58.261Z,8.83
2019-03-16T02:51:00.673Z,12.53
2019-03-16T02:56:02.533Z,13.55
2019-03-16T03:01:04.052Z,14.95
2019-03-16T03:06:05.429Z,10.18
2019-03-16T03:11:08.297Z,13.22
2019-03-16T03:16:09.587Z,13.10
2019-03-16T03:21:11.160Z,22.65
2019-03-16T03:26:12.477Z,10.32
2019-03-16T03:31:15.671Z,18.12
2019-03-16T03:36:17.090Z,13.55
2019-03-16T03:41:20.351Z,19.15
2019-03-16T03:46:21.647Z,18.15
2019-03-16T03:51:23.254Z,14.28
2019-03-16T03:56:24.760Z,22.70
2019-03-16T04:01:26.760Z,18.70
2019-03-16T04:06:28.602Z,25.60
2019-03-16T04:11:31.315Z,15.30
2019-03-16T04:16:32.688Z,18.25
2019-03-16T04:21:36.217Z,25.88
2019-03-16T04:26:37.501Z,24.82
2019-03-16T04:31:39.340Z,27.00
2019-03-16T04:36:40.744Z,19.57
2019-03-16T04:41:44.848Z,30.52
2019-03-16T04:46:46.485Z,31.87
2019-03-16T04:51:47.941Z,35.17
2019-03-16T04:56:49.529Z,34.60
2019-03-16T05:01:52.209Z,39.88
2019-03-16T05:06:53.630Z,39.80
2019-03-16T05:11:55.136Z,43.55
2019-03-16T05:16:56.527Z,65.80
2019-03-16T05:21:57.857Z,65.90
2019-03-16T05:26:59.468Z,60.88
2019-03-16T05:32:00.847Z,73.35
2019-03-16T05:37:04.183Z,75.30
2019-03-16T05:42:06.030Z,69.80
2019-03-16T05:47:09.242Z,73.25
2019-03-16T05:52:10.650Z,70.75
2019-03-16T05:57:12.120Z,49.20
2019-03-16T06:02:13.559Z,27.93
2019-03-16T06:07:14.965Z,25.32
2019-03-16T06:12:16.523Z,23.87
2019-03-16T06:17:17.905Z,27.05
2019-03-16T06:22:20.503Z,22.75
2019-03-16T06:27:21.925Z,22.07
2019-03-16T06:32:23.226Z,17.23
2019-03-16T06:37:25.008Z,21.68
2019-03-16T06:42:26.370Z,26.42
2019-03-16T06:47:27.896Z,24.12
2019-03-16T06:52:29.846Z,26.00
2019-03-16T06:57:31.194Z,25.48
2019-03-16T07:02:33.087Z,26.23
2019-03-16T07:07:34.563Z,21.42
2019-03-16T07:12:35.951Z,19.05
2019-03-16T07:17:37.620Z,21.68
2019-03-16T07:22:39.119Z,27.55
2019-03-16T07:27:40.544Z,32.35
2019-03-16T07:32:41.969Z,29.65
2019-03-16T07:37:44.523Z,40.98
2019-03-16T07:42:46.163Z,38.35
2019-03-16T07:47:48.042Z,28.47
2019-03-16T07:52:49.560Z,33.58
2019-03-16T07:57:50.991Z,27.32
2019-03-16T08:02:52.891Z,26.07
2019-03-16T08:07:55.029Z,19.27
2019-03-16T08:12:56.827Z,25.82
2019-03-16T08:17:58.595Z,20.00
2019-03-16T08:22:59.879Z,21.68
2019-03-16T08:28:02.276Z,14.63
2019-03-16T08:33:03.945Z,16.57
2019-03-16T08:38:05.724Z,18.32
2019-03-16T08:43:09.382Z,14.40
2019-03-16T08:48:22.144Z,18.60
2019-03-16T08:53:15.168Z,22.00
2019-03-16T08:58:16.625Z,15.55
2019-03-16T09:03:19.700Z,18.17
2019-03-16T09:08:21.019Z,18.23
2019-03-16T09:13:22.361Z,13.95
2019-03-16T09:18:24.164Z,15.98
2019-03-16T09:23:25.554Z,15.45
2019-03-16T09:28:26.958Z,15.08
2019-03-16T09:33:28.447Z,14.78
2019-03-16T09:38:29.807Z,11.08
2019-03-16T09:43:31.818Z,6.05
2019-03-16T09:48:33.229Z,6.00
2019-03-16T09:53:34.596Z,8.10
2019-03-16T09:58:35.916Z,8.55
2019-03-16T10:03:37.520Z,7.58
2019-03-16T10:08:40.811Z,10.72
2019-03-16T10:13:42.251Z,8.93
2019-03-16T10:18:43.608Z,8.00
2019-03-16T10:23:46.416Z,6.10
2019-03-16T10:28:51.350Z,7.70
2019-03-16T10:33:54.622Z,7.60
2019-03-16T10:38:56.238Z,9.50
2019-03-16T10:44:16.279Z,10.98
2019-03-16T10:49:19.962Z,8.98
2019-03-16T10:54:21.344Z,10.68
2019-03-16T10:59:23.830Z,8.45
2019-03-16T11:04:25.559Z,8.38
2019-03-16T11:09:27.039Z,7.58
2019-03-16T11:14:28.392Z,7.55
2019-03-16T11:19:30.046Z,12.47
2019-03-16T11:24:31.600Z,7.47
2019-03-16T11:29:33.294Z,7.00
2019-03-16T11:34:34.914Z,8.40
2019-03-16T11:39:36.642Z,9.03
2019-03-16T11:44:37.928Z,7.05
2019-03-16T11:49:39.479Z,6.25
2019-03-16T11:54:40.807Z,5.87
2019-03-16T11:59:42.356Z,5.12
2019-03-16T12:04:43.781Z,5.10
2019-03-16T12:09:45.080Z,7.92
2019-03-16T12:14:46.534Z,3.72
2019-03-16T12:19:48.458Z,5.62
2019-03-16T12:24:51.117Z,5.92
2019-03-16T12:29:52.550Z,2.52
2019-03-16T12:34:54.041Z,4.92
2019-03-16T12:39:55.654Z,5.00
2019-03-16T12:44:58.113Z,1.92
2019-03-16T12:49:59.676Z,5.62
2019-03-16T12:55:01.071Z,3.92
2019-03-16T13:00:16.138Z,4.00
2019-03-16T13:05:17.843Z,1.25
2019-03-16T13:10:22.724Z,3.27
2019-03-16T13:15:24.034Z,4.90
2019-03-16T13:20:25.818Z,5.87
2019-03-16T13:25:27.498Z,2.92
2019-03-16T13:30:28.844Z,3.12
2019-03-16T13:35:30.421Z,3.58
2019-03-16T13:40:31.720Z,4.35
2019-03-16T13:45:33.417Z,3.00
2019-03-16T13:50:53.681Z,3.80
2019-03-16T13:55:54.970Z,4.05
2019-03-16T14:00:56.305Z,5.45
2019-03-16T14:05:57.603Z,3.87
2019-03-16T14:10:59.010Z,4.15
2019-03-16T14:16:00.955Z,3.58
2019-03-16T14:21:02.599Z,4.50
2019-03-16T14:26:06.101Z,4.78
2019-03-16T14:31:07.384Z,6.40
2019-03-16T14:36:08.758Z,5.28
2019-03-16T14:41:12.316Z,5.45
2019-03-16T14:46:15.018Z,6.12
2019-03-16T14:51:16.521Z,10.23
2019-03-16T14:56:17.835Z,6.60
2019-03-16T15:01:19.433Z,4.92
2019-03-16T15:06:24.246Z,8.45
2019-03-16T15:11:25.768Z,6.00
2019-03-16T15:16:27.140Z,9.58
2019-03-16T15:21:28.630Z,6.70
2019-03-16T15:26:30.047Z,6.92
2019-03-16T15:31:31.499Z,5.85
2019-03-16T15:36:32.963Z,8.88
2019-03-16T15:41:34.512Z,7.95
2019-03-16T15:46:36.197Z,6.75
2019-03-16T15:51:38.353Z,9.15
2019-03-16T15:56:39.964Z,8.48
2019-03-16T16:01:41.509Z,4.35
2019-03-16T16:06:44.096Z,6.17
2019-03-16T16:11:45.538Z,6.10
2019-03-16T16:16:47.173Z,9.53
2019-03-16T16:21:48.639Z,4.10
2019-03-16T16:26:49.957Z,7.60
2019-03-16T16:31:51.237Z,8.85
2019-03-16T16:36:52.683Z,12.35
2019-03-16T16:41:54.199Z,7.97
2019-03-16T16:46:57.318Z,5.22
2019-03-16T16:51:58.616Z,12.47
2019-03-16T16:56:59.979Z,7.17
2019-03-16T17:02:01.522Z,9.25
2019-03-16T17:07:02.982Z,8.78
2019-03-16T17:12:04.829Z,9.40
2019-03-16T17:17:34.555Z,7.33
2019-03-16T17:22:28.133Z,7.47
2019-03-16T17:27:29.443Z,5.83
2019-03-16T17:32:30.951Z,7.37
2019-03-16T17:37:32.279Z,8.20
2019-03-16T17:42:33.666Z,6.87
2019-03-16T17:47:34.964Z,7.78
2019-03-16T17:52:36.406Z,5.92
2019-03-16T17:57:45.088Z,4.87
2019-03-16T18:02:52.820Z,6.87
2019-03-16T18:07:55.040Z,7.40
2019-03-16T18:12:56.340Z,6.78
2019-03-16T18:18:01.655Z,7.15
2019-03-16T18:23:03.303Z,7.50
2019-03-16T18:28:04.715Z,6.72
2019-03-16T18:33:06.137Z,9.55
2019-03-16T18:38:07.575Z,7.78
2019-03-16T18:43:27.605Z,6.80
2019-03-16T18:48:30.391Z,6.22
2019-03-16T18:53:32.168Z,8.10
2019-03-16T18:59:47.722Z,10.32
2019-03-16T19:03:37.127Z,7.28
2019-03-16T19:08:39.053Z,10.32
2019-03-16T19:13:40.455Z,8.85
2019-03-16T19:18:41.865Z,7.47
2019-03-16T19:23:43.432Z,7.37
2019-03-16T19:28:46.709Z,7.17
2019-03-16T19:33:48.200Z,12.65
2019-03-16T19:38:49.518Z,8.33
2019-03-16T19:43:50.888Z,7.05
2019-03-16T19:48:52.506Z,8.25
2019-03-16T19:53:56.040Z,10.05
2019-03-16T19:59:00.880Z,13.28
2019-03-16T20:04:02.966Z,12.47
2019-03-16T20:09:05.727Z,13.35
2019-03-16T20:19:27.292Z,10.58
2019-03-16T20:24:29.639Z,10.88
2019-03-16T20:29:31.110Z,11.50
2019-03-16T20:34:32.575Z,12.75
2019-03-16T20:39:34.088Z,15.18
2019-03-16T20:44:36.512Z,11.73
2019-03-16T20:49:38.017Z,8.55
2019-03-16T20:54:41.268Z,10.32
2019-03-16T20:59:43.539Z,13.08
2019-03-16T21:04:46.659Z,13.40
2019-03-16T21:09:48.263Z,13.93
2019-03-16T21:14:51.631Z,14.00
2019-03-16T21:19:53.181Z,15.03
2019-03-16T21:24:54.576Z,18.42
2019-03-16T21:29:56.039Z,12.60
2019-03-16T21:34:57.835Z,15.40
2019-03-16T21:39:59.214Z,14.85
2019-03-16T21:45:13.814Z,16.20
2019-03-16T21:50:15.905Z,17.20
2019-03-16T21:55:17.942Z,18.95
2019-03-16T22:00:20.688Z,18.40
2019-03-16T22:05:40.925Z,16.70
2019-03-16T22:10:43.417Z,17.25
2019-03-16T22:15:49.353Z,17.30
2019-03-16T22:20:52.732Z,17.27
2019-03-16T22:25:56.270Z,13.70
2019-03-16T22:30:57.568Z,19.27
2019-03-16T22:35:58.959Z,16.07
2019-03-16T22:41:00.308Z,18.17
2019-03-16T22:46:01.714Z,21.05
2019-03-16T22:51:03.352Z,15.78
2019-03-16T22:56:05.073Z,13.20
2019-03-16T23:01:06.796Z,16.05
2019-03-16T23:06:08.267Z,14.28
2019-03-16T23:11:10.730Z,11.18
2019-03-16T23:16:12.092Z,13.15
2019-03-16T23:21:13.705Z,9.35
2019-03-16T23:26:15.127Z,11.10
2019-03-16T23:31:16.769Z,7.70
2019-03-16T23:36:18.237Z,9.53
2019-03-16T23:41:19.631Z,9.23
2019-03-16T23:46:20.961Z,8.68
2019-03-16T23:51:22.335Z,7.65
2019-03-16T23:56:23.774Z,8.78
